sensor_id;sensor_type;location;lat;lon;timestamp;P1;durP1;ratioP1;P2;durP2;ratioP2
2710;SDS011;20721;47.402;8.550;2023-03-01T00:00:37;32.67;;;31.37;;
2710;SDS011;20721;47.402;8.550;2023-03-01T00:01:38;30.86;;;30.15;;
2710;SDS011;20721;47.402;8.550;2023-03-01T00:02:37;30.14;;;29.67;;
2710;SDS011;20721;47.402;8.550;2023-03-01T00:03:37;30.37;;;29.79;;
2710;SDS011;20721;47.402;8.550;2023-03-01T00:04:37;29.51;;;29.08;;
2710;SDS011;20721;47.402;8.550;2023-03-01T00:06:37;31.04;;;30.67;;
2710;SDS011;20721;47.402;8.550;2023-03-01T00:07:37;32.30;;;31.59;;
2710;SDS011;20721;47.402;8.550;2023-03-01T00:08:37;30.64;;;29.72;;
2710;SDS011;20721;47.402;8.550;2023-03-01T00:09:37;31.58;;;30.74;;
2710;SDS011;20721;47.402;8.550;2023-03-01T00:10:37;29.92;;;29.48;;
2710;SDS011;20721;47.402;8.550;2023-03-01T00:11:38;31.90;;;31.35;;
2710;SDS011;20721;47.402;8.550;2023-03-01T00:13:37;32.27;;;30.99;;
2710;SDS011;20721;47.402;8.550;2023-03-01T00:14:37;33.76;;;32.53;;
2710;SDS011;20721;47.402;8.550;2023-03-01T00:16:39;32.02;;;31.00;;
2710;SDS011;20721;47.402;8.550;2023-03-01T00:17:37;30.74;;;30.25;;
2710;SDS011;20721;47.402;8.550;2023-03-01T00:18:37;30.74;;;30.12;;
2710;SDS011;20721;47.402;8.550;2023-03-01T00:19:37;30.96;;;30.38;;
2710;SDS011;20721;47.402;8.550;2023-03-01T00:20:37;32.68;;;31.45;;
2710;SDS011;20721;47.402;8.550;2023-03-01T00:21:37;29.66;;;29.13;;
2710;SDS011;20721;47.402;8.550;2023-03-01T00:23:37;31.10;;;30.26;;
2710;SDS011;20721;47.402;8.550;2023-03-01T00:24:37;30.81;;;29.97;;
2710;SDS011;20721;47.402;8.550;2023-03-01T00:25:40;31.15;;;30.33;;
2710;SDS011;20721;47.402;8.550;2023-03-01T00:26:37;32.41;;;31.50;;
2710;SDS011;20721;47.402;8.550;2023-03-01T00:27:37;30.97;;;30.32;;
2710;SDS011;20721;47.402;8.550;2023-03-01T00:28:37;30.39;;;29.68;;
2710;SDS011;20721;47.402;8.550;2023-03-01T00:29:37;30.03;;;29.33;;
2710;SDS011;20721;47.402;8.550;2023-03-01T00:30:37;31.22;;;30.10;;
2710;SDS011;20721;47.402;8.550;2023-03-01T00:31:39;31.52;;;30.62;;
2710;SDS011;20721;47.402;8.550;2023-03-01T00:32:37;32.42;;;31.65;;
2710;SDS011;20721;47.402;8.550;2023-03-01T00:34:37;32.23;;;31.55;;
2710;SDS011;20721;47.402;8.550;2023-03-01T00:35:37;31.37;;;30.82;;
2710;SDS011;20721;47.402;8.550;2023-03-01T00:36:42;32.02;;;30.75;;
2710;SDS011;20721;47.402;8.550;2023-03-01T00:37:37;30.16;;;29.37;;
2710;SDS011;20721;47.402;8.550;2023-03-01T00:38:38;32.89;;;32.14;;
2710;SDS011;20721;47.402;8.550;2023-03-01T00:40:38;32.92;;;32.34;;
2710;SDS011;20721;47.402;8.550;2023-03-01T00:41:37;31.72;;;30.98;;
2710;SDS011;20721;47.402;8.550;2023-03-01T00:42:37;32.60;;;31.54;;
2710;SDS011;20721;47.402;8.550;2023-03-01T00:43:37;33.74;;;32.60;;
2710;SDS011;20721;47.402;8.550;2023-03-01T00:44:38;33.05;;;32.12;;
2710;SDS011;20721;47.402;8.550;2023-03-01T00:46:37;34.48;;;33.43;;
2710;SDS011;20721;47.402;8.550;2023-03-01T00:47:38;32.40;;;31.60;;
2710;SDS011;20721;47.402;8.550;2023-03-01T00:48:37;34.03;;;33.33;;
2710;SDS011;20721;47.402;8.550;2023-03-01T00:49:37;32.83;;;32.12;;
2710;SDS011;20721;47.402;8.550;2023-03-01T00:50:37;33.48;;;32.30;;
2710;SDS011;20721;47.402;8.550;2023-03-01T00:51:37;33.63;;;32.61;;
2710;SDS011;20721;47.402;8.550;2023-03-01T00:52:38;32.03;;;31.25;;
2710;SDS011;20721;47.402;8.550;2023-03-01T00:53:37;31.62;;;31.16;;
2710;SDS011;20721;47.402;8.550;2023-03-01T00:54:37;31.26;;;30.61;;
2710;SDS011;20721;47.402;8.550;2023-03-01T00:55:37;31.24;;;30.42;;
2710;SDS011;20721;47.402;8.550;2023-03-01T00:56:37;33.08;;;32.42;;
2710;SDS011;20721;47.402;8.550;2023-03-01T00:57:37;32.84;;;32.15;;
2710;SDS011;20721;47.402;8.550;2023-03-01T00:58:37;32.57;;;31.83;;
2710;SDS011;20721;47.402;8.550;2023-03-01T00:59:37;34.19;;;33.06;;
2710;SDS011;20721;47.402;8.550;2023-03-01T01:00:38;32.89;;;31.99;;
2710;SDS011;20721;47.402;8.550;2023-03-01T01:01:40;31.64;;;30.94;;
2710;SDS011;20721;47.402;8.550;2023-03-01T01:02:37;32.59;;;31.92;;
2710;SDS011;20721;47.402;8.550;2023-03-01T01:05:37;33.57;;;32.98;;
2710;SDS011;20721;47.402;8.550;2023-03-01T01:06:40;32.48;;;31.66;;
2710;SDS011;20721;47.402;8.550;2023-03-01T01:07:37;31.32;;;30.85;;
2710;SDS011;20721;47.402;8.550;2023-03-01T01:08:37;30.71;;;30.28;;
2710;SDS011;20721;47.402;8.550;2023-03-01T01:09:37;33.64;;;33.15;;
2710;SDS011;20721;47.402;8.550;2023-03-01T01:10:37;32.72;;;32.03;;
2710;SDS011;20721;47.402;8.550;2023-03-01T01:11:38;31.59;;;30.97;;
2710;SDS011;20721;47.402;8.550;2023-03-01T01:12:37;32.99;;;32.33;;
2710;SDS011;20721;47.402;8.550;2023-03-01T01:13:37;32.92;;;32.31;;
2710;SDS011;20721;47.402;8.550;2023-03-01T01:14:37;33.58;;;32.83;;
2710;SDS011;20721;47.402;8.550;2023-03-01T01:15:37;33.41;;;32.67;;
2710;SDS011;20721;47.402;8.550;2023-03-01T01:16:37;33.56;;;32.12;;
2710;SDS011;20721;47.402;8.550;2023-03-01T01:17:37;31.01;;;30.46;;
2710;SDS011;20721;47.402;8.550;2023-03-01T01:18:37;31.62;;;30.86;;
2710;SDS011;20721;47.402;8.550;2023-03-01T01:20:37;32.53;;;31.97;;
2710;SDS011;20721;47.402;8.550;2023-03-01T01:21:37;32.28;;;31.57;;
2710;SDS011;20721;47.402;8.550;2023-03-01T01:22:37;32.09;;;31.49;;
2710;SDS011;20721;47.402;8.550;2023-03-01T01:23:37;33.52;;;32.46;;
2710;SDS011;20721;47.402;8.550;2023-03-01T01:24:37;33.55;;;32.95;;
2710;SDS011;20721;47.402;8.550;2023-03-01T01:25:37;33.29;;;32.45;;
2710;SDS011;20721;47.402;8.550;2023-03-01T01:26:38;33.47;;;32.14;;
2710;SDS011;20721;47.402;8.550;2023-03-01T01:27:37;34.18;;;32.83;;
2710;SDS011;20721;47.402;8.550;2023-03-01T01:30:37;32.81;;;32.17;;
2710;SDS011;20721;47.402;8.550;2023-03-01T01:31:39;33.14;;;32.36;;
2710;SDS011;20721;47.402;8.550;2023-03-01T01:32:37;32.50;;;31.63;;
2710;SDS011;20721;47.402;8.550;2023-03-01T01:33:37;32.53;;;31.78;;
2710;SDS011;20721;47.402;8.550;2023-03-01T01:34:37;32.85;;;32.03;;
2710;SDS011;20721;47.402;8.550;2023-03-01T01:35:37;33.24;;;32.37;;
2710;SDS011;20721;47.402;8.550;2023-03-01T01:36:37;33.70;;;32.56;;
2710;SDS011;20721;47.402;8.550;2023-03-01T01:38:37;32.71;;;31.70;;
2710;SDS011;20721;47.402;8.550;2023-03-01T01:39:37;32.60;;;31.62;;
2710;SDS011;20721;47.402;8.550;2023-03-01T01:40:42;33.71;;;32.68;;
2710;SDS011;20721;47.402;8.550;2023-03-01T01:42:37;33.71;;;32.62;;
2710;SDS011;20721;47.402;8.550;2023-03-01T01:43:41;32.00;;;31.21;;
2710;SDS011;20721;47.402;8.550;2023-03-01T01:44:37;32.15;;;31.25;;
2710;SDS011;20721;47.402;8.550;2023-03-01T01:45:40;32.06;;;31.53;;
2710;SDS011;20721;47.402;8.550;2023-03-01T01:46:37;31.65;;;31.12;;
2710;SDS011;20721;47.402;8.550;2023-03-01T01:48:43;31.11;;;30.32;;
2710;SDS011;20721;47.402;8.550;2023-03-01T01:49:42;32.32;;;31.60;;
2710;SDS011;20721;47.402;8.550;2023-03-01T01:50:38;32.95;;;31.97;;
2710;SDS011;20721;47.402;8.550;2023-03-01T01:51:40;32.25;;;31.11;;
2710;SDS011;20721;47.402;8.550;2023-03-01T01:52:39;32.18;;;31.42;;
2710;SDS011;20721;47.402;8.550;2023-03-01T01:54:42;32.11;;;31.41;;
2710;SDS011;20721;47.402;8.550;2023-03-01T01:55:38;32.09;;;31.45;;
2710;SDS011;20721;47.402;8.550;2023-03-01T01:56:38;32.46;;;31.91;;
2710;SDS011;20721;47.402;8.550;2023-03-01T01:58:02;33.01;;;32.28;;
2710;SDS011;20721;47.402;8.550;2023-03-01T01:58:39;33.49;;;32.21;;
2710;SDS011;20721;47.402;8.550;2023-03-01T01:59:38;33.24;;;32.56;;
2710;SDS011;20721;47.402;8.550;2023-03-01T02:02:37;31.56;;;30.97;;
2710;SDS011;20721;47.402;8.550;2023-03-01T02:03:41;32.35;;;31.65;;
2710;SDS011;20721;47.402;8.550;2023-03-01T02:04:37;31.78;;;31.19;;
2710;SDS011;20721;47.402;8.550;2023-03-01T02:06:51;33.44;;;32.42;;
2710;SDS011;20721;47.402;8.550;2023-03-01T02:07:38;32.90;;;31.99;;
2710;SDS011;20721;47.402;8.550;2023-03-01T02:08:39;33.24;;;32.46;;
2710;SDS011;20721;47.402;8.550;2023-03-01T02:09:37;33.92;;;32.65;;
2710;SDS011;20721;47.402;8.550;2023-03-01T02:10:37;33.26;;;32.40;;
2710;SDS011;20721;47.402;8.550;2023-03-01T02:11:39;31.61;;;30.62;;
2710;SDS011;20721;47.402;8.550;2023-03-01T02:12:37;31.81;;;31.17;;
2710;SDS011;20721;47.402;8.550;2023-03-01T02:13:37;32.12;;;31.42;;
2710;SDS011;20721;47.402;8.550;2023-03-01T02:14:37;31.28;;;30.32;;
2710;SDS011;20721;47.402;8.550;2023-03-01T02:15:41;33.11;;;32.11;;
2710;SDS011;20721;47.402;8.550;2023-03-01T02:16:37;30.53;;;30.07;;
2710;SDS011;20721;47.402;8.550;2023-03-01T02:17:37;32.46;;;31.50;;
2710;SDS011;20721;47.402;8.550;2023-03-01T02:18:37;31.07;;;30.54;;
2710;SDS011;20721;47.402;8.550;2023-03-01T02:19:50;31.71;;;31.12;;
2710;SDS011;20721;47.402;8.550;2023-03-01T02:22:39;31.28;;;30.61;;
2710;SDS011;20721;47.402;8.550;2023-03-01T02:23:37;31.82;;;30.99;;
2710;SDS011;20721;47.402;8.550;2023-03-01T02:24:57;30.64;;;30.03;;
2710;SDS011;20721;47.402;8.550;2023-03-01T02:25:47;31.85;;;31.17;;
2710;SDS011;20721;47.402;8.550;2023-03-01T02:26:48;32.71;;;31.94;;
2710;SDS011;20721;47.402;8.550;2023-03-01T02:28:00;31.42;;;30.51;;
2710;SDS011;20721;47.402;8.550;2023-03-01T02:28:42;31.51;;;30.73;;
2710;SDS011;20721;47.402;8.550;2023-03-01T02:29:38;31.85;;;31.14;;
2710;SDS011;20721;47.402;8.550;2023-03-01T02:30:38;31.23;;;30.28;;
2710;SDS011;20721;47.402;8.550;2023-03-01T02:31:47;31.55;;;30.88;;
2710;SDS011;20721;47.402;8.550;2023-03-01T02:32:38;30.72;;;30.24;;
2710;SDS011;20721;47.402;8.550;2023-03-01T02:33:38;32.51;;;31.36;;
2710;SDS011;20721;47.402;8.550;2023-03-01T02:34:37;31.28;;;30.55;;
2710;SDS011;20721;47.402;8.550;2023-03-01T02:35:38;32.16;;;31.67;;
2710;SDS011;20721;47.402;8.550;2023-03-01T02:37:37;32.14;;;31.55;;
2710;SDS011;20721;47.402;8.550;2023-03-01T02:38:38;31.03;;;30.62;;
2710;SDS011;20721;47.402;8.550;2023-03-01T02:39:44;32.53;;;31.52;;
2710;SDS011;20721;47.402;8.550;2023-03-01T02:40:39;32.34;;;31.18;;
2710;SDS011;20721;47.402;8.550;2023-03-01T02:41:41;32.32;;;31.55;;
2710;SDS011;20721;47.402;8.550;2023-03-01T02:42:43;30.87;;;30.25;;
2710;SDS011;20721;47.402;8.550;2023-03-01T02:43:39;31.32;;;30.37;;
2710;SDS011;20721;47.402;8.550;2023-03-01T02:44:37;32.22;;;31.22;;
2710;SDS011;20721;47.402;8.550;2023-03-01T02:45:37;32.35;;;31.36;;
2710;SDS011;20721;47.402;8.550;2023-03-01T02:46:46;31.51;;;30.59;;
2710;SDS011;20721;47.402;8.550;2023-03-01T02:47:37;31.68;;;30.91;;
2710;SDS011;20721;47.402;8.550;2023-03-01T02:48:41;32.72;;;31.19;;
2710;SDS011;20721;47.402;8.550;2023-03-01T02:50:44;29.70;;;29.05;;
2710;SDS011;20721;47.402;8.550;2023-03-01T02:51:47;30.26;;;29.33;;
2710;SDS011;20721;47.402;8.550;2023-03-01T02:52:48;32.15;;;30.45;;
2710;SDS011;20721;47.402;8.550;2023-03-01T02:55:37;31.18;;;30.45;;
2710;SDS011;20721;47.402;8.550;2023-03-01T02:57:39;29.15;;;28.93;;
2710;SDS011;20721;47.402;8.550;2023-03-01T02:58:37;28.92;;;28.60;;
2710;SDS011;20721;47.402;8.550;2023-03-01T02:59:40;29.72;;;29.21;;
2710;SDS011;20721;47.402;8.550;2023-03-01T03:00:42;29.98;;;29.50;;
2710;SDS011;20721;47.402;8.550;2023-03-01T03:01:46;32.33;;;31.34;;
2710;SDS011;20721;47.402;8.550;2023-03-01T03:02:48;31.22;;;30.15;;
2710;SDS011;20721;47.402;8.550;2023-03-01T03:03:37;28.43;;;27.71;;
2710;SDS011;20721;47.402;8.550;2023-03-01T03:04:37;31.31;;;30.37;;
2710;SDS011;20721;47.402;8.550;2023-03-01T03:05:40;32.76;;;31.32;;
2710;SDS011;20721;47.402;8.550;2023-03-01T03:06:37;29.85;;;29.03;;
2710;SDS011;20721;47.402;8.550;2023-03-01T03:07:38;31.64;;;30.28;;
2710;SDS011;20721;47.402;8.550;2023-03-01T03:08:37;32.57;;;31.42;;
2710;SDS011;20721;47.402;8.550;2023-03-01T03:09:38;31.61;;;30.73;;
2710;SDS011;20721;47.402;8.550;2023-03-01T03:10:39;30.33;;;29.84;;
2710;SDS011;20721;47.402;8.550;2023-03-01T03:11:37;29.26;;;28.63;;
2710;SDS011;20721;47.402;8.550;2023-03-01T03:12:37;29.91;;;29.25;;
2710;SDS011;20721;47.402;8.550;2023-03-01T03:13:38;30.05;;;29.26;;
2710;SDS011;20721;47.402;8.550;2023-03-01T03:14:37;31.42;;;30.46;;
2710;SDS011;20721;47.402;8.550;2023-03-01T03:15:38;28.76;;;28.30;;
2710;SDS011;20721;47.402;8.550;2023-03-01T03:16:40;30.86;;;30.01;;
2710;SDS011;20721;47.402;8.550;2023-03-01T03:17:37;29.21;;;28.49;;
2710;SDS011;20721;47.402;8.550;2023-03-01T03:18:37;28.60;;;28.13;;
2710;SDS011;20721;47.402;8.550;2023-03-01T03:19:37;29.52;;;28.78;;
2710;SDS011;20721;47.402;8.550;2023-03-01T03:20:38;29.93;;;28.86;;
2710;SDS011;20721;47.402;8.550;2023-03-01T03:21:37;29.85;;;28.98;;
2710;SDS011;20721;47.402;8.550;2023-03-01T03:22:39;29.37;;;28.75;;
2710;SDS011;20721;47.402;8.550;2023-03-01T03:23:39;28.81;;;28.21;;
2710;SDS011;20721;47.402;8.550;2023-03-01T03:24:38;30.36;;;29.54;;
2710;SDS011;20721;47.402;8.550;2023-03-01T03:25:37;29.58;;;28.95;;
2710;SDS011;20721;47.402;8.550;2023-03-01T03:26:37;31.81;;;30.52;;
2710;SDS011;20721;47.402;8.550;2023-03-01T03:27:38;30.79;;;29.87;;
2710;SDS011;20721;47.402;8.550;2023-03-01T03:28:37;30.58;;;29.64;;
2710;SDS011;20721;47.402;8.550;2023-03-01T03:30:39;30.77;;;29.88;;
2710;SDS011;20721;47.402;8.550;2023-03-01T03:32:38;28.65;;;27.73;;
2710;SDS011;20721;47.402;8.550;2023-03-01T03:33:37;31.17;;;30.14;;
2710;SDS011;20721;47.402;8.550;2023-03-01T03:34:37;28.20;;;27.79;;
2710;SDS011;20721;47.402;8.550;2023-03-01T03:35:42;28.41;;;27.77;;
2710;SDS011;20721;47.402;8.550;2023-03-01T03:36:37;29.18;;;28.56;;
2710;SDS011;20721;47.402;8.550;2023-03-01T03:37:48;28.37;;;28.00;;
2710;SDS011;20721;47.402;8.550;2023-03-01T03:38:37;29.43;;;28.84;;
2710;SDS011;20721;47.402;8.550;2023-03-01T03:39:37;30.14;;;29.25;;
2710;SDS011;20721;47.402;8.550;2023-03-01T03:40:39;30.83;;;29.52;;
2710;SDS011;20721;47.402;8.550;2023-03-01T03:41:37;29.81;;;28.38;;
2710;SDS011;20721;47.402;8.550;2023-03-01T03:42:37;29.99;;;28.72;;
2710;SDS011;20721;47.402;8.550;2023-03-01T03:43:39;28.82;;;28.13;;
2710;SDS011;20721;47.402;8.550;2023-03-01T03:44:37;29.91;;;29.11;;
2710;SDS011;20721;47.402;8.550;2023-03-01T03:45:37;30.24;;;29.33;;
2710;SDS011;20721;47.402;8.550;2023-03-01T03:46:37;29.49;;;28.67;;
2710;SDS011;20721;47.402;8.550;2023-03-01T03:47:37;29.85;;;29.40;;
2710;SDS011;20721;47.402;8.550;2023-03-01T03:48:38;29.40;;;28.74;;
2710;SDS011;20721;47.402;8.550;2023-03-01T03:49:37;28.75;;;28.12;;
2710;SDS011;20721;47.402;8.550;2023-03-01T03:50:38;29.47;;;28.49;;
2710;SDS011;20721;47.402;8.550;2023-03-01T03:51:37;29.11;;;28.14;;
2710;SDS011;20721;47.402;8.550;2023-03-01T03:52:37;30.56;;;29.42;;
2710;SDS011;20721;47.402;8.550;2023-03-01T03:53:38;29.56;;;28.34;;
2710;SDS011;20721;47.402;8.550;2023-03-01T03:54:37;28.42;;;27.54;;
2710;SDS011;20721;47.402;8.550;2023-03-01T03:55:40;29.24;;;28.62;;
2710;SDS011;20721;47.402;8.550;2023-03-01T03:56:39;28.08;;;27.49;;
2710;SDS011;20721;47.402;8.550;2023-03-01T03:57:37;28.61;;;28.01;;
2710;SDS011;20721;47.402;8.550;2023-03-01T03:58:37;28.97;;;28.22;;
2710;SDS011;20721;47.402;8.550;2023-03-01T03:59:37;31.27;;;30.21;;
2710;SDS011;20721;47.402;8.550;2023-03-01T04:00:39;28.70;;;27.78;;
2710;SDS011;20721;47.402;8.550;2023-03-01T04:01:37;30.29;;;29.71;;
2710;SDS011;20721;47.402;8.550;2023-03-01T04:02:38;29.68;;;28.34;;
2710;SDS011;20721;47.402;8.550;2023-03-01T04:03:38;31.36;;;29.76;;
2710;SDS011;20721;47.402;8.550;2023-03-01T04:04:37;30.51;;;29.20;;
2710;SDS011;20721;47.402;8.550;2023-03-01T04:05:38;30.06;;;29.03;;
2710;SDS011;20721;47.402;8.550;2023-03-01T04:06:37;28.60;;;27.71;;
2710;SDS011;20721;47.402;8.550;2023-03-01T04:07:37;30.49;;;29.13;;
2710;SDS011;20721;47.402;8.550;2023-03-01T04:08:37;30.94;;;29.90;;
2710;SDS011;20721;47.402;8.550;2023-03-01T04:09:37;32.36;;;30.95;;
2710;SDS011;20721;47.402;8.550;2023-03-01T04:10:39;30.40;;;29.43;;
2710;SDS011;20721;47.402;8.550;2023-03-01T04:11:37;29.72;;;28.83;;
2710;SDS011;20721;47.402;8.550;2023-03-01T04:12:37;28.80;;;27.86;;
2710;SDS011;20721;47.402;8.550;2023-03-01T04:14:37;29.98;;;29.25;;
2710;SDS011;20721;47.402;8.550;2023-03-01T04:15:37;26.82;;;26.15;;
2710;SDS011;20721;47.402;8.550;2023-03-01T04:16:37;31.47;;;30.39;;
2710;SDS011;20721;47.402;8.550;2023-03-01T04:17:38;30.60;;;29.45;;
2710;SDS011;20721;47.402;8.550;2023-03-01T04:18:37;30.49;;;28.97;;
2710;SDS011;20721;47.402;8.550;2023-03-01T04:20:39;30.62;;;29.20;;
2710;SDS011;20721;47.402;8.550;2023-03-01T04:21:37;32.19;;;30.48;;
2710;SDS011;20721;47.402;8.550;2023-03-01T04:22:39;30.58;;;29.46;;
2710;SDS011;20721;47.402;8.550;2023-03-01T04:23:37;29.11;;;27.97;;
2710;SDS011;20721;47.402;8.550;2023-03-01T04:24:37;29.74;;;28.87;;
2710;SDS011;20721;47.402;8.550;2023-03-01T04:25:38;29.06;;;28.59;;
2710;SDS011;20721;47.402;8.550;2023-03-01T04:26:37;30.64;;;29.55;;
2710;SDS011;20721;47.402;8.550;2023-03-01T04:27:37;29.03;;;28.41;;
2710;SDS011;20721;47.402;8.550;2023-03-01T04:28:40;31.73;;;30.81;;
2710;SDS011;20721;47.402;8.550;2023-03-01T04:29:37;29.57;;;28.81;;
2710;SDS011;20721;47.402;8.550;2023-03-01T04:30:38;29.85;;;28.82;;
2710;SDS011;20721;47.402;8.550;2023-03-01T04:31:38;32.29;;;30.59;;
2710;SDS011;20721;47.402;8.550;2023-03-01T04:32:37;28.94;;;28.14;;
2710;SDS011;20721;47.402;8.550;2023-03-01T04:33:37;29.59;;;28.53;;
2710;SDS011;20721;47.402;8.550;2023-03-01T04:34:37;30.30;;;29.47;;
2710;SDS011;20721;47.402;8.550;2023-03-01T04:35:37;31.60;;;30.21;;
2710;SDS011;20721;47.402;8.550;2023-03-01T04:36:39;31.28;;;29.65;;
2710;SDS011;20721;47.402;8.550;2023-03-01T04:37:37;32.13;;;30.67;;
2710;SDS011;20721;47.402;8.550;2023-03-01T04:38:37;30.72;;;29.78;;
2710;SDS011;20721;47.402;8.550;2023-03-01T04:39:37;32.19;;;30.66;;
2710;SDS011;20721;47.402;8.550;2023-03-01T04:40:37;30.65;;;29.46;;
2710;SDS011;20721;47.402;8.550;2023-03-01T04:41:38;30.75;;;29.66;;
2710;SDS011;20721;47.402;8.550;2023-03-01T04:42:37;31.01;;;29.54;;
2710;SDS011;20721;47.402;8.550;2023-03-01T04:43:37;30.34;;;29.59;;
2710;SDS011;20721;47.402;8.550;2023-03-01T04:44:37;31.13;;;30.13;;
2710;SDS011;20721;47.402;8.550;2023-03-01T04:45:37;31.57;;;30.39;;
2710;SDS011;20721;47.402;8.550;2023-03-01T04:47:37;30.73;;;29.58;;
2710;SDS011;20721;47.402;8.550;2023-03-01T04:48:38;31.86;;;30.93;;
2710;SDS011;20721;47.402;8.550;2023-03-01T04:49:37;30.27;;;29.48;;
2710;SDS011;20721;47.402;8.550;2023-03-01T04:50:37;32.25;;;30.64;;
2710;SDS011;20721;47.402;8.550;2023-03-01T04:51:37;32.47;;;30.84;;
2710;SDS011;20721;47.402;8.550;2023-03-01T04:53:37;30.62;;;29.39;;
2710;SDS011;20721;47.402;8.550;2023-03-01T04:54:38;31.92;;;30.82;;
2710;SDS011;20721;47.402;8.550;2023-03-01T04:55:38;31.18;;;30.03;;
2710;SDS011;20721;47.402;8.550;2023-03-01T04:56:37;32.56;;;31.22;;
2710;SDS011;20721;47.402;8.550;2023-03-01T04:57:37;30.85;;;29.53;;
2710;SDS011;20721;47.402;8.550;2023-03-01T04:58:38;30.97;;;29.95;;
2710;SDS011;20721;47.402;8.550;2023-03-01T04:59:38;31.09;;;29.78;;
2710;SDS011;20721;47.402;8.550;2023-03-01T05:00:37;31.70;;;30.45;;
2710;SDS011;20721;47.402;8.550;2023-03-01T05:01:37;30.26;;;29.40;;
2710;SDS011;20721;47.402;8.550;2023-03-01T05:03:38;30.97;;;29.85;;
2710;SDS011;20721;47.402;8.550;2023-03-01T05:04:38;32.08;;;30.53;;
2710;SDS011;20721;47.402;8.550;2023-03-01T05:05:38;32.74;;;31.29;;
2710;SDS011;20721;47.402;8.550;2023-03-01T05:07:37;34.78;;;33.22;;
2710;SDS011;20721;47.402;8.550;2023-03-01T05:08:38;33.50;;;31.73;;
2710;SDS011;20721;47.402;8.550;2023-03-01T05:09:37;29.19;;;28.27;;
2710;SDS011;20721;47.402;8.550;2023-03-01T05:10:39;30.66;;;30.15;;
2710;SDS011;20721;47.402;8.550;2023-03-01T05:11:41;31.48;;;30.22;;
2710;SDS011;20721;47.402;8.550;2023-03-01T05:12:37;31.46;;;30.18;;
2710;SDS011;20721;47.402;8.550;2023-03-01T05:13:39;30.40;;;29.25;;
2710;SDS011;20721;47.402;8.550;2023-03-01T05:14:39;32.52;;;31.39;;
2710;SDS011;20721;47.402;8.550;2023-03-01T05:15:39;30.46;;;29.36;;
2710;SDS011;20721;47.402;8.550;2023-03-01T05:16:37;29.93;;;28.94;;
2710;SDS011;20721;47.402;8.550;2023-03-01T05:17:37;31.41;;;30.51;;
2710;SDS011;20721;47.402;8.550;2023-03-01T05:18:39;31.55;;;30.34;;
2710;SDS011;20721;47.402;8.550;2023-03-01T05:19:37;33.07;;;31.26;;
2710;SDS011;20721;47.402;8.550;2023-03-01T05:20:39;32.67;;;31.33;;
2710;SDS011;20721;47.402;8.550;2023-03-01T05:21:38;32.75;;;31.50;;
2710;SDS011;20721;47.402;8.550;2023-03-01T05:22:37;32.14;;;30.66;;
2710;SDS011;20721;47.402;8.550;2023-03-01T05:23:37;30.58;;;29.62;;
2710;SDS011;20721;47.402;8.550;2023-03-01T05:24:38;32.03;;;30.89;;
2710;SDS011;20721;47.402;8.550;2023-03-01T05:25:43;31.93;;;30.36;;
2710;SDS011;20721;47.402;8.550;2023-03-01T05:26:39;33.66;;;31.30;;
2710;SDS011;20721;47.402;8.550;2023-03-01T05:27:37;32.35;;;30.80;;
2710;SDS011;20721;47.402;8.550;2023-03-01T05:28:39;31.76;;;30.04;;
2710;SDS011;20721;47.402;8.550;2023-03-01T05:29:38;31.57;;;30.01;;
2710;SDS011;20721;47.402;8.550;2023-03-01T05:30:37;33.74;;;31.96;;
2710;SDS011;20721;47.402;8.550;2023-03-01T05:31:38;32.13;;;30.19;;
2710;SDS011;20721;47.402;8.550;2023-03-01T05:32:42;32.54;;;31.08;;
2710;SDS011;20721;47.402;8.550;2023-03-01T05:33:40;31.37;;;30.35;;
2710;SDS011;20721;47.402;8.550;2023-03-01T05:34:39;31.72;;;30.91;;
2710;SDS011;20721;47.402;8.550;2023-03-01T05:35:40;33.59;;;32.17;;
2710;SDS011;20721;47.402;8.550;2023-03-01T05:36:37;33.10;;;31.34;;
2710;SDS011;20721;47.402;8.550;2023-03-01T05:38:37;32.34;;;30.82;;
2710;SDS011;20721;47.402;8.550;2023-03-01T05:39:39;34.63;;;32.64;;
2710;SDS011;20721;47.402;8.550;2023-03-01T05:40:40;31.34;;;29.79;;
2710;SDS011;20721;47.402;8.550;2023-03-01T05:42:37;32.05;;;30.99;;
2710;SDS011;20721;47.402;8.550;2023-03-01T05:43:41;32.12;;;30.58;;
2710;SDS011;20721;47.402;8.550;2023-03-01T05:44:38;33.63;;;31.62;;
2710;SDS011;20721;47.402;8.550;2023-03-01T05:45:37;31.92;;;30.28;;
2710;SDS011;20721;47.402;8.550;2023-03-01T05:46:39;32.50;;;30.79;;
2710;SDS011;20721;47.402;8.550;2023-03-01T05:47:39;31.84;;;30.60;;
2710;SDS011;20721;47.402;8.550;2023-03-01T05:48:37;32.09;;;31.02;;
2710;SDS011;20721;47.402;8.550;2023-03-01T05:49:37;32.03;;;30.97;;
2710;SDS011;20721;47.402;8.550;2023-03-01T05:51:40;32.81;;;31.56;;
2710;SDS011;20721;47.402;8.550;2023-03-01T05:52:37;32.21;;;30.93;;
2710;SDS011;20721;47.402;8.550;2023-03-01T05:53:37;31.16;;;30.23;;
2710;SDS011;20721;47.402;8.550;2023-03-01T05:54:37;32.93;;;30.80;;
2710;SDS011;20721;47.402;8.550;2023-03-01T05:55:39;32.69;;;30.92;;
2710;SDS011;20721;47.402;8.550;2023-03-01T05:56:37;32.67;;;31.50;;
2710;SDS011;20721;47.402;8.550;2023-03-01T05:57:38;33.75;;;32.12;;
2710;SDS011;20721;47.402;8.550;2023-03-01T05:58:37;33.58;;;31.62;;
2710;SDS011;20721;47.402;8.550;2023-03-01T05:59:37;32.21;;;30.61;;
2710;SDS011;20721;47.402;8.550;2023-03-01T06:00:38;31.99;;;30.65;;
2710;SDS011;20721;47.402;8.550;2023-03-01T06:01:37;32.30;;;30.91;;
2710;SDS011;20721;47.402;8.550;2023-03-01T06:02:39;32.01;;;30.62;;
2710;SDS011;20721;47.402;8.550;2023-03-01T06:03:37;33.53;;;31.80;;
2710;SDS011;20721;47.402;8.550;2023-03-01T06:04:37;31.48;;;30.14;;
2710;SDS011;20721;47.402;8.550;2023-03-01T06:05:38;34.59;;;32.30;;
2710;SDS011;20721;47.402;8.550;2023-03-01T06:06:39;34.25;;;31.98;;
2710;SDS011;20721;47.402;8.550;2023-03-01T06:07:38;33.40;;;31.17;;
2710;SDS011;20721;47.402;8.550;2023-03-01T06:08:37;31.68;;;30.37;;
2710;SDS011;20721;47.402;8.550;2023-03-01T06:09:37;30.03;;;28.95;;
2710;SDS011;20721;47.402;8.550;2023-03-01T06:10:38;30.68;;;29.86;;
2710;SDS011;20721;47.402;8.550;2023-03-01T06:11:37;34.86;;;32.78;;
2710;SDS011;20721;47.402;8.550;2023-03-01T06:12:40;34.14;;;32.37;;
2710;SDS011;20721;47.402;8.550;2023-03-01T06:13:37;32.47;;;31.05;;
2710;SDS011;20721;47.402;8.550;2023-03-01T06:14:37;32.13;;;30.78;;
2710;SDS011;20721;47.402;8.550;2023-03-01T06:15:38;33.68;;;32.71;;
2710;SDS011;20721;47.402;8.550;2023-03-01T06:16:39;32.89;;;31.08;;
2710;SDS011;20721;47.402;8.550;2023-03-01T06:17:40;32.44;;;30.87;;
2710;SDS011;20721;47.402;8.550;2023-03-01T06:18:37;32.66;;;31.24;;
2710;SDS011;20721;47.402;8.550;2023-03-01T06:19:37;32.16;;;30.80;;
2710;SDS011;20721;47.402;8.550;2023-03-01T06:20:38;33.17;;;31.56;;
2710;SDS011;20721;47.402;8.550;2023-03-01T06:22:37;31.82;;;30.54;;
2710;SDS011;20721;47.402;8.550;2023-03-01T06:23:38;32.82;;;30.90;;
2710;SDS011;20721;47.402;8.550;2023-03-01T06:25:37;32.25;;;30.54;;
2710;SDS011;20721;47.402;8.550;2023-03-01T06:26:37;31.90;;;30.33;;
2710;SDS011;20721;47.402;8.550;2023-03-01T06:27:37;32.00;;;31.15;;
2710;SDS011;20721;47.402;8.550;2023-03-01T06:28:37;32.53;;;30.74;;
2710;SDS011;20721;47.402;8.550;2023-03-01T06:29:37;33.12;;;31.31;;
2710;SDS011;20721;47.402;8.550;2023-03-01T06:30:37;34.00;;;31.85;;
2710;SDS011;20721;47.402;8.550;2023-03-01T06:31:38;33.68;;;31.63;;
2710;SDS011;20721;47.402;8.550;2023-03-01T06:33:38;32.55;;;31.05;;
2710;SDS011;20721;47.402;8.550;2023-03-01T06:34:37;32.89;;;30.98;;
2710;SDS011;20721;47.402;8.550;2023-03-01T06:35:40;31.97;;;30.30;;